N11DL CYBD-CYSE
Flight info
| Callsign | N11DL |
|---|---|
| Flight time | 1h 19m |
| Altitude | 11500 |
| Route | CYPW DCT CAP3 |
| Aircraft | AEST/L-SDFGRY/S |
Departure
| Time | 2026-04-16 17:20 |
|---|---|
| Airport | Bella Coola Airport (CYBD) |
Arrival
| Time | 2026-04-16 18:40 |
|---|---|
| Airport | Squamish Airport (CYSE) |
| Time | Latitude | Longitude | Altitude | Speed | Heading |
|---|---|---|---|---|---|
| 2026-04-16 17:08 | 52.38807 | -126.58716 | 132 ft | 0 kts | 255° |
| 2026-04-16 17:16 | 52.38806 | -126.58743 | 132 ft | 7 kts | 292° |
| 2026-04-16 17:16 | 52.38846 | -126.58764 | 132 ft | 0 kts | 339° |
| 2026-04-16 17:16 | 52.38848 | -126.58765 | 132 ft | 0 kts | 339° |
| 2026-04-16 17:18 | 52.38857 | -126.58771 | 132 ft | 7 kts | 340° |
| 2026-04-16 17:19 | 52.38915 | -126.58793 | 131 ft | 8 kts | 17° |
| 2026-04-16 17:19 | 52.38931 | -126.58804 | 132 ft | 0 kts | 249° |
| 2026-04-16 17:19 | 52.38892 | -126.58977 | 132 ft | 57 kts | 250° |
| 2026-04-16 17:20 | 52.38692 | -126.59888 | 210 ft | 99 kts | 251° |
| 2026-04-16 17:20 | 52.38476 | -126.60971 | 582 ft | 107 kts | 255° |
| 2026-04-16 17:20 | 52.38218 | -126.62202 | 945 ft | 117 kts | 250° |
| 2026-04-16 17:20 | 52.37915 | -126.63433 | 1380 ft | 114 kts | 252° |
| 2026-04-16 17:21 | 52.37709 | -126.64710 | 1689 ft | 121 kts | 258° |
| 2026-04-16 17:21 | 52.37554 | -126.66045 | 2053 ft | 118 kts | 257° |
| 2026-04-16 17:21 | 52.37393 | -126.67363 | 2394 ft | 118 kts | 257° |
| 2026-04-16 17:21 | 52.37257 | -126.68695 | 2726 ft | 120 kts | 270° |
| 2026-04-16 17:22 | 52.37291 | -126.70053 | 3063 ft | 120 kts | 272° |
| 2026-04-16 17:22 | 52.37333 | -126.71427 | 3375 ft | 122 kts | 272° |
| 2026-04-16 17:22 | 52.37377 | -126.72810 | 3695 ft | 121 kts | 272° |
| 2026-04-16 17:22 | 52.37424 | -126.74191 | 3996 ft | 122 kts | 272° |
| 2026-04-16 17:23 | 52.37471 | -126.75597 | 4267 ft | 126 kts | 272° |
| 2026-04-16 17:23 | 52.37521 | -126.77024 | 4519 ft | 128 kts | 273° |
| 2026-04-16 17:23 | 52.37573 | -126.78490 | 4789 ft | 130 kts | 272° |
| 2026-04-16 17:23 | 52.37626 | -126.79966 | 5061 ft | 130 kts | 272° |
| 2026-04-16 17:24 | 52.37535 | -126.81423 | 5314 ft | 130 kts | 249° |
| 2026-04-16 17:24 | 52.37165 | -126.82770 | 5580 ft | 130 kts | 243° |
| 2026-04-16 17:24 | 52.36754 | -126.84080 | 5834 ft | 129 kts | 243° |
| 2026-04-16 17:24 | 52.36340 | -126.85386 | 6073 ft | 130 kts | 243° |
| 2026-04-16 17:25 | 52.35920 | -126.86715 | 6282 ft | 133 kts | 242° |
| 2026-04-16 17:25 | 52.35230 | -126.87697 | 6467 ft | 135 kts | 200° |
| 2026-04-16 17:25 | 52.34302 | -126.87761 | 6694 ft | 136 kts | 166° |
| 2026-04-16 17:25 | 52.33444 | -126.87091 | 6914 ft | 138 kts | 152° |
| 2026-04-16 17:26 | 52.32620 | -126.86282 | 7130 ft | 139 kts | 150° |
| 2026-04-16 17:26 | 52.31809 | -126.85453 | 7348 ft | 140 kts | 150° |
| 2026-04-16 17:26 | 52.30969 | -126.84592 | 7546 ft | 142 kts | 150° |
| 2026-04-16 17:26 | 52.30121 | -126.83729 | 7768 ft | 149 kts | 150° |
| 2026-04-16 17:27 | 52.29227 | -126.82826 | 8024 ft | 153 kts | 150° |
| 2026-04-16 17:27 | 52.28313 | -126.81907 | 8289 ft | 155 kts | 150° |
| 2026-04-16 17:27 | 52.27388 | -126.80978 | 8562 ft | 157 kts | 150° |
| 2026-04-16 17:27 | 52.26463 | -126.80036 | 8838 ft | 157 kts | 150° |
| 2026-04-16 17:28 | 52.25533 | -126.79094 | 9099 ft | 157 kts | 150° |
| 2026-04-16 17:28 | 52.24603 | -126.78159 | 9379 ft | 157 kts | 151° |
| 2026-04-16 17:28 | 52.23665 | -126.77219 | 9642 ft | 159 kts | 150° |
| 2026-04-16 17:28 | 52.22724 | -126.76271 | 9899 ft | 160 kts | 151° |
| 2026-04-16 17:29 | 52.21774 | -126.75321 | 10150 ft | 160 kts | 151° |
| 2026-04-16 17:29 | 52.20820 | -126.74365 | 10384 ft | 161 kts | 151° |
| 2026-04-16 17:29 | 52.19862 | -126.73404 | 10601 ft | 162 kts | 151° |
| 2026-04-16 17:29 | 52.18896 | -126.72431 | 10828 ft | 164 kts | 151° |
| 2026-04-16 17:30 | 52.17936 | -126.71469 | 11040 ft | 164 kts | 151° |
| 2026-04-16 17:30 | 52.16960 | -126.70490 | 11258 ft | 165 kts | 151° |
| 2026-04-16 17:30 | 52.15973 | -126.69503 | 11445 ft | 169 kts | 151° |
| 2026-04-16 17:30 | 52.14949 | -126.68482 | 11527 ft | 177 kts | 151° |
| 2026-04-16 17:31 | 52.13861 | -126.67403 | 11517 ft | 189 kts | 151° |
| 2026-04-16 17:31 | 52.12714 | -126.66268 | 11500 ft | 197 kts | 151° |
| 2026-04-16 17:31 | 52.11527 | -126.65091 | 11500 ft | 202 kts | 151° |
| 2026-04-16 17:31 | 52.10319 | -126.63891 | 11501 ft | 205 kts | 150° |
| 2026-04-16 17:32 | 52.09099 | -126.62676 | 11497 ft | 206 kts | 150° |
| 2026-04-16 17:32 | 52.07873 | -126.61449 | 11502 ft | 208 kts | 150° |
| 2026-04-16 17:32 | 52.06637 | -126.60211 | 11494 ft | 209 kts | 150° |
| 2026-04-16 17:32 | 52.05404 | -126.58970 | 11498 ft | 208 kts | 150° |
| 2026-04-16 17:33 | 52.04169 | -126.57734 | 11501 ft | 208 kts | 150° |
| 2026-04-16 17:33 | 52.02931 | -126.56500 | 11497 ft | 209 kts | 150° |
| 2026-04-16 17:33 | 52.01693 | -126.55268 | 11494 ft | 207 kts | 150° |
| 2026-04-16 17:33 | 52.00469 | -126.54054 | 11488 ft | 206 kts | 150° |
| 2026-04-16 17:34 | 51.99255 | -126.52850 | 11491 ft | 204 kts | 150° |
| 2026-04-16 17:34 | 51.98065 | -126.51670 | 11495 ft | 203 kts | 150° |
| 2026-04-16 17:34 | 51.96856 | -126.50473 | 11497 ft | 203 kts | 150° |
| 2026-04-16 17:34 | 51.95648 | -126.49273 | 11503 ft | 205 kts | 150° |
| 2026-04-16 17:35 | 51.94427 | -126.48062 | 11499 ft | 206 kts | 150° |
| 2026-04-16 17:35 | 51.93202 | -126.46849 | 11498 ft | 206 kts | 150° |
| 2026-04-16 17:35 | 51.91974 | -126.45634 | 11502 ft | 207 kts | 150° |
| 2026-04-16 17:35 | 51.90745 | -126.44418 | 11501 ft | 207 kts | 150° |
| 2026-04-16 17:36 | 51.89511 | -126.43198 | 11499 ft | 208 kts | 150° |
| 2026-04-16 17:36 | 51.88270 | -126.41980 | 11501 ft | 209 kts | 150° |
| 2026-04-16 17:36 | 51.87027 | -126.40764 | 11497 ft | 209 kts | 150° |
| 2026-04-16 17:36 | 51.85784 | -126.39545 | 11496 ft | 209 kts | 150° |
| 2026-04-16 17:37 | 51.84542 | -126.38327 | 11495 ft | 208 kts | 150° |
| 2026-04-16 17:37 | 51.83307 | -126.37115 | 11500 ft | 208 kts | 150° |
| 2026-04-16 17:37 | 51.82070 | -126.35902 | 11500 ft | 209 kts | 150° |
| 2026-04-16 17:37 | 51.80843 | -126.34700 | 11497 ft | 209 kts | 150° |
| 2026-04-16 17:38 | 51.79603 | -126.33481 | 11500 ft | 209 kts | 150° |
| 2026-04-16 17:38 | 51.78361 | -126.32262 | 11497 ft | 209 kts | 150° |
| 2026-04-16 17:38 | 51.77116 | -126.31037 | 11496 ft | 210 kts | 150° |
| 2026-04-16 17:38 | 51.75870 | -126.29814 | 11500 ft | 210 kts | 150° |
| 2026-04-16 17:39 | 51.74620 | -126.28590 | 11491 ft | 210 kts | 150° |
| 2026-04-16 17:39 | 51.73369 | -126.27369 | 11490 ft | 210 kts | 150° |
| 2026-04-16 17:39 | 51.72119 | -126.26149 | 11487 ft | 210 kts | 150° |
| 2026-04-16 17:39 | 51.70872 | -126.24925 | 11487 ft | 210 kts | 150° |
| 2026-04-16 17:40 | 51.69625 | -126.23694 | 11485 ft | 210 kts | 150° |
| 2026-04-16 17:40 | 51.68397 | -126.22482 | 11487 ft | 209 kts | 150° |
| 2026-04-16 17:40 | 51.67157 | -126.21262 | 11488 ft | 208 kts | 150° |
| 2026-04-16 17:40 | 51.65918 | -126.20050 | 11489 ft | 209 kts | 150° |
| 2026-04-16 17:41 | 51.64671 | -126.18836 | 11491 ft | 209 kts | 150° |
| 2026-04-16 17:41 | 51.63426 | -126.17623 | 11489 ft | 210 kts | 150° |
| 2026-04-16 17:41 | 51.62178 | -126.16409 | 11486 ft | 210 kts | 150° |
| 2026-04-16 17:41 | 51.60929 | -126.15194 | 11488 ft | 210 kts | 150° |
| 2026-04-16 17:42 | 51.59678 | -126.13979 | 11489 ft | 210 kts | 150° |
| 2026-04-16 17:42 | 51.58427 | -126.12764 | 11491 ft | 210 kts | 150° |
| 2026-04-16 17:42 | 51.57178 | -126.11549 | 11490 ft | 210 kts | 150° |
| 2026-04-16 17:42 | 51.55925 | -126.10333 | 11488 ft | 210 kts | 150° |
| 2026-04-16 17:43 | 51.54674 | -126.09119 | 11489 ft | 210 kts | 150° |
| 2026-04-16 17:43 | 51.53419 | -126.07902 | 11486 ft | 210 kts | 150° |
| 2026-04-16 17:43 | 51.52168 | -126.06689 | 11488 ft | 210 kts | 150° |
| 2026-04-16 17:43 | 51.50936 | -126.05496 | 11491 ft | 209 kts | 150° |
| 2026-04-16 17:44 | 51.49686 | -126.04287 | 11486 ft | 209 kts | 150° |
| 2026-04-16 17:44 | 51.48439 | -126.03082 | 11489 ft | 209 kts | 150° |
| 2026-04-16 17:44 | 51.47191 | -126.01876 | 11486 ft | 209 kts | 150° |
| 2026-04-16 17:44 | 51.45944 | -126.00675 | 11488 ft | 209 kts | 150° |
| 2026-04-16 17:45 | 51.44698 | -125.99472 | 11490 ft | 209 kts | 150° |
| 2026-04-16 17:45 | 51.43446 | -125.98264 | 11491 ft | 210 kts | 150° |
| 2026-04-16 17:45 | 51.42192 | -125.97057 | 11491 ft | 210 kts | 150° |
| 2026-04-16 17:45 | 51.40938 | -125.95851 | 11490 ft | 210 kts | 150° |
| 2026-04-16 17:46 | 51.39684 | -125.94643 | 11488 ft | 211 kts | 150° |
| 2026-04-16 17:46 | 51.38428 | -125.93436 | 11486 ft | 211 kts | 150° |
| 2026-04-16 17:46 | 51.37171 | -125.92227 | 11488 ft | 211 kts | 150° |
| 2026-04-16 17:46 | 51.35915 | -125.91019 | 11491 ft | 210 kts | 150° |
| 2026-04-16 17:47 | 51.34661 | -125.89818 | 11490 ft | 210 kts | 150° |
| 2026-04-16 17:47 | 51.33407 | -125.88617 | 11490 ft | 210 kts | 150° |
| 2026-04-16 17:47 | 51.32150 | -125.87411 | 11492 ft | 211 kts | 150° |
| 2026-04-16 17:47 | 51.30890 | -125.86204 | 11488 ft | 212 kts | 150° |
| 2026-04-16 17:48 | 51.29627 | -125.84998 | 11487 ft | 211 kts | 150° |
| 2026-04-16 17:48 | 51.28381 | -125.83805 | 11488 ft | 212 kts | 150° |
| 2026-04-16 17:48 | 51.27117 | -125.82592 | 11485 ft | 212 kts | 150° |
| 2026-04-16 17:48 | 51.25856 | -125.81384 | 11487 ft | 211 kts | 150° |
| 2026-04-16 17:49 | 51.24595 | -125.80182 | 11488 ft | 211 kts | 150° |
| 2026-04-16 17:49 | 51.23332 | -125.78981 | 11489 ft | 212 kts | 150° |
| 2026-04-16 17:49 | 51.22065 | -125.77776 | 11489 ft | 212 kts | 150° |
| 2026-04-16 17:49 | 51.20797 | -125.76567 | 11481 ft | 212 kts | 150° |
| 2026-04-16 17:50 | 51.19529 | -125.75359 | 11486 ft | 212 kts | 150° |
| 2026-04-16 17:50 | 51.18264 | -125.74152 | 11488 ft | 212 kts | 150° |
| 2026-04-16 17:50 | 51.16996 | -125.72944 | 11487 ft | 212 kts | 150° |
| 2026-04-16 17:50 | 51.15726 | -125.71736 | 11487 ft | 212 kts | 150° |
| 2026-04-16 17:51 | 51.14461 | -125.70535 | 11490 ft | 212 kts | 150° |
| 2026-04-16 17:51 | 51.13191 | -125.69328 | 11489 ft | 213 kts | 150° |
| 2026-04-16 17:51 | 51.11921 | -125.68125 | 11490 ft | 212 kts | 150° |
| 2026-04-16 17:51 | 51.10668 | -125.66935 | 11489 ft | 212 kts | 150° |
| 2026-04-16 17:52 | 51.09402 | -125.65740 | 11486 ft | 212 kts | 150° |
| 2026-04-16 17:52 | 51.08138 | -125.64544 | 11487 ft | 212 kts | 149° |
| 2026-04-16 17:52 | 51.06872 | -125.63343 | 11490 ft | 212 kts | 149° |
| 2026-04-16 17:52 | 51.05609 | -125.62144 | 11492 ft | 212 kts | 150° |
| 2026-04-16 17:53 | 51.04338 | -125.60940 | 11489 ft | 212 kts | 150° |
| 2026-04-16 17:53 | 51.03496 | -125.60146 | 11489 ft | 213 kts | 150° |
| 2026-04-16 17:53 | 51.01790 | -125.58537 | 11490 ft | 213 kts | 150° |
| 2026-04-16 17:53 | 51.00947 | -125.57741 | 11491 ft | 213 kts | 150° |
| 2026-04-16 17:54 | 50.99672 | -125.56540 | 11487 ft | 213 kts | 150° |
| 2026-04-16 17:54 | 50.98393 | -125.55336 | 11487 ft | 214 kts | 150° |
| 2026-04-16 17:54 | 50.97116 | -125.54135 | 11488 ft | 213 kts | 150° |
| 2026-04-16 17:54 | 50.95839 | -125.52934 | 11486 ft | 213 kts | 150° |
| 2026-04-16 17:55 | 50.94560 | -125.51733 | 11487 ft | 213 kts | 150° |
| 2026-04-16 17:55 | 50.93282 | -125.50530 | 11489 ft | 213 kts | 149° |
| 2026-04-16 17:55 | 50.92006 | -125.49335 | 11493 ft | 214 kts | 149° |
| 2026-04-16 17:55 | 50.90722 | -125.48127 | 11476 ft | 215 kts | 149° |
| 2026-04-16 17:56 | 50.89439 | -125.46921 | 11474 ft | 214 kts | 149° |
| 2026-04-16 17:56 | 50.88165 | -125.45727 | 11487 ft | 213 kts | 149° |
| 2026-04-16 17:56 | 50.85611 | -125.43334 | 11480 ft | 214 kts | 149° |
| 2026-04-16 17:57 | 50.84348 | -125.42153 | 11478 ft | 213 kts | 150° |
| 2026-04-16 17:57 | 50.83069 | -125.40960 | 11482 ft | 214 kts | 149° |
| 2026-04-16 17:57 | 50.81788 | -125.39763 | 11479 ft | 214 kts | 149° |
| 2026-04-16 17:57 | 50.80507 | -125.38566 | 11480 ft | 214 kts | 149° |
| 2026-04-16 17:58 | 50.79226 | -125.37368 | 11483 ft | 215 kts | 150° |
| 2026-04-16 17:58 | 50.77937 | -125.36167 | 11479 ft | 215 kts | 150° |
| 2026-04-16 17:58 | 50.76653 | -125.34973 | 11479 ft | 214 kts | 150° |
| 2026-04-16 17:58 | 50.75374 | -125.33779 | 11469 ft | 213 kts | 150° |
| 2026-04-16 17:59 | 50.74096 | -125.32589 | 11486 ft | 213 kts | 150° |
| 2026-04-16 17:59 | 50.72814 | -125.31394 | 11486 ft | 215 kts | 150° |
| 2026-04-16 17:59 | 50.71524 | -125.30196 | 11478 ft | 215 kts | 150° |
| 2026-04-16 17:59 | 50.70232 | -125.28998 | 11481 ft | 216 kts | 150° |
| 2026-04-16 18:00 | 50.68938 | -125.27798 | 11483 ft | 216 kts | 149° |
| 2026-04-16 18:00 | 50.67640 | -125.26597 | 11479 ft | 216 kts | 149° |
| 2026-04-16 18:00 | 50.66346 | -125.25397 | 11479 ft | 216 kts | 149° |
| 2026-04-16 18:00 | 50.65052 | -125.24199 | 11479 ft | 216 kts | 149° |
| 2026-04-16 18:01 | 50.63762 | -125.23000 | 11483 ft | 215 kts | 149° |
| 2026-04-16 18:01 | 50.62467 | -125.21801 | 11476 ft | 216 kts | 149° |
| 2026-04-16 18:01 | 50.61172 | -125.20603 | 11469 ft | 216 kts | 150° |
| 2026-04-16 18:01 | 50.59883 | -125.19409 | 11478 ft | 215 kts | 150° |
| 2026-04-16 18:02 | 50.58595 | -125.18222 | 11481 ft | 214 kts | 150° |
| 2026-04-16 18:02 | 50.57306 | -125.17034 | 11484 ft | 215 kts | 150° |
| 2026-04-16 18:02 | 50.56006 | -125.15837 | 11475 ft | 217 kts | 150° |
| 2026-04-16 18:02 | 50.54708 | -125.14641 | 11481 ft | 217 kts | 150° |
| 2026-04-16 18:03 | 50.53404 | -125.13438 | 11478 ft | 217 kts | 150° |
| 2026-04-16 18:03 | 50.52123 | -125.12259 | 11481 ft | 216 kts | 150° |
| 2026-04-16 18:03 | 50.50805 | -125.11050 | 11474 ft | 216 kts | 149° |
| 2026-04-16 18:03 | 50.49508 | -125.09857 | 11477 ft | 215 kts | 150° |
| 2026-04-16 18:04 | 50.48232 | -125.08684 | 11479 ft | 216 kts | 149° |
| 2026-04-16 18:04 | 50.46938 | -125.07495 | 11478 ft | 216 kts | 149° |
| 2026-04-16 18:04 | 50.45644 | -125.06307 | 11482 ft | 216 kts | 149° |
| 2026-04-16 18:04 | 50.44350 | -125.05120 | 11478 ft | 216 kts | 150° |
| 2026-04-16 18:05 | 50.43053 | -125.03932 | 11483 ft | 216 kts | 149° |
| 2026-04-16 18:05 | 50.41755 | -125.02743 | 11480 ft | 216 kts | 149° |
| 2026-04-16 18:05 | 50.40460 | -125.01557 | 11479 ft | 216 kts | 150° |
| 2026-04-16 18:05 | 50.39161 | -125.00367 | 11479 ft | 216 kts | 150° |
| 2026-04-16 18:06 | 50.37860 | -124.99177 | 11421 ft | 219 kts | 150° |
| 2026-04-16 18:06 | 50.36534 | -124.97968 | 11327 ft | 222 kts | 150° |
| 2026-04-16 18:06 | 50.35188 | -124.96742 | 11188 ft | 226 kts | 150° |
| 2026-04-16 18:06 | 50.33817 | -124.95496 | 11039 ft | 230 kts | 150° |
| 2026-04-16 18:07 | 50.32421 | -124.94223 | 10841 ft | 234 kts | 150° |
| 2026-04-16 18:07 | 50.31007 | -124.92938 | 10643 ft | 236 kts | 150° |
| 2026-04-16 18:07 | 50.29580 | -124.91642 | 10460 ft | 238 kts | 150° |
| 2026-04-16 18:07 | 50.28142 | -124.90338 | 10248 ft | 240 kts | 150° |
| 2026-04-16 18:08 | 50.26696 | -124.89029 | 10071 ft | 240 kts | 150° |
| 2026-04-16 18:08 | 50.25254 | -124.87717 | 9861 ft | 240 kts | 150° |
| 2026-04-16 18:08 | 50.23808 | -124.86406 | 9648 ft | 241 kts | 150° |
| 2026-04-16 18:08 | 50.22373 | -124.85106 | 9408 ft | 242 kts | 150° |
| 2026-04-16 18:09 | 50.20917 | -124.83788 | 9198 ft | 241 kts | 150° |
| 2026-04-16 18:09 | 50.19471 | -124.82478 | 8992 ft | 241 kts | 150° |
| 2026-04-16 18:09 | 50.18025 | -124.81171 | 8793 ft | 239 kts | 150° |
| 2026-04-16 18:09 | 50.16588 | -124.79870 | 8598 ft | 238 kts | 150° |
| 2026-04-16 18:10 | 50.15157 | -124.78571 | 8407 ft | 237 kts | 151° |
| 2026-04-16 18:10 | 50.13732 | -124.77283 | 8212 ft | 237 kts | 151° |
| 2026-04-16 18:10 | 50.12310 | -124.76006 | 8024 ft | 236 kts | 151° |
| 2026-04-16 18:10 | 50.10891 | -124.74722 | 7825 ft | 236 kts | 150° |
| 2026-04-16 18:11 | 50.09471 | -124.73432 | 7603 ft | 237 kts | 150° |
| 2026-04-16 18:11 | 50.08045 | -124.72140 | 7400 ft | 237 kts | 150° |
| 2026-04-16 18:11 | 50.06621 | -124.70857 | 7205 ft | 236 kts | 150° |
| 2026-04-16 18:11 | 50.05201 | -124.69580 | 7018 ft | 236 kts | 150° |
| 2026-04-16 18:12 | 50.03782 | -124.68305 | 6835 ft | 235 kts | 150° |
| 2026-04-16 18:12 | 50.02363 | -124.67033 | 6661 ft | 235 kts | 150° |
| 2026-04-16 18:12 | 50.00949 | -124.65765 | 6477 ft | 235 kts | 150° |
| 2026-04-16 18:12 | 49.99537 | -124.64497 | 6307 ft | 234 kts | 150° |
| 2026-04-16 18:13 | 49.98128 | -124.63232 | 6134 ft | 234 kts | 150° |
| 2026-04-16 18:13 | 49.96713 | -124.61965 | 5944 ft | 235 kts | 150° |
| 2026-04-16 18:13 | 49.95299 | -124.60699 | 5760 ft | 235 kts | 151° |
| 2026-04-16 18:13 | 49.93883 | -124.59433 | 5579 ft | 234 kts | 150° |
| 2026-04-16 18:14 | 49.92471 | -124.58170 | 5402 ft | 234 kts | 151° |
| 2026-04-16 18:14 | 49.91062 | -124.56912 | 5228 ft | 233 kts | 151° |
| 2026-04-16 18:14 | 49.89677 | -124.55675 | 5055 ft | 233 kts | 151° |
| 2026-04-16 18:14 | 49.88274 | -124.54424 | 4885 ft | 232 kts | 151° |
| 2026-04-16 18:15 | 49.86877 | -124.53171 | 4715 ft | 232 kts | 149° |
| 2026-04-16 18:15 | 49.85689 | -124.51497 | 4519 ft | 232 kts | 129° |
| 2026-04-16 18:15 | 49.84693 | -124.49516 | 4338 ft | 232 kts | 128° |
| 2026-04-16 18:15 | 49.83715 | -124.47519 | 4126 ft | 233 kts | 127° |
| 2026-04-16 18:16 | 49.82740 | -124.45505 | 3919 ft | 234 kts | 127° |
| 2026-04-16 18:16 | 49.81770 | -124.43497 | 3798 ft | 231 kts | 127° |
| 2026-04-16 18:16 | 49.80811 | -124.41515 | 3674 ft | 229 kts | 127° |
| 2026-04-16 18:16 | 49.79855 | -124.39549 | 3555 ft | 228 kts | 127° |
| 2026-04-16 18:17 | 49.78903 | -124.37602 | 3492 ft | 225 kts | 128° |
| 2026-04-16 18:17 | 49.77970 | -124.35695 | 3508 ft | 219 kts | 128° |
| 2026-04-16 18:17 | 49.77059 | -124.33831 | 3521 ft | 216 kts | 128° |
| 2026-04-16 18:17 | 49.76154 | -124.31985 | 3517 ft | 215 kts | 128° |
| 2026-04-16 18:18 | 49.75254 | -124.30156 | 3507 ft | 213 kts | 128° |
| 2026-04-16 18:18 | 49.74359 | -124.28347 | 3528 ft | 210 kts | 128° |
| 2026-04-16 18:18 | 49.73475 | -124.26562 | 3519 ft | 209 kts | 128° |
| 2026-04-16 18:18 | 49.72593 | -124.24780 | 3513 ft | 208 kts | 128° |
| 2026-04-16 18:19 | 49.71716 | -124.23018 | 3509 ft | 205 kts | 128° |
| 2026-04-16 18:19 | 49.70845 | -124.21287 | 3514 ft | 202 kts | 128° |
| 2026-04-16 18:19 | 49.69989 | -124.19580 | 3518 ft | 200 kts | 128° |
| 2026-04-16 18:19 | 49.69151 | -124.17904 | 3517 ft | 199 kts | 128° |
| 2026-04-16 18:20 | 49.68307 | -124.16211 | 3513 ft | 199 kts | 128° |
| 2026-04-16 18:20 | 49.67466 | -124.14519 | 3512 ft | 199 kts | 128° |
| 2026-04-16 18:20 | 49.66624 | -124.12829 | 3509 ft | 198 kts | 128° |
| 2026-04-16 18:20 | 49.65716 | -124.11231 | 3491 ft | 199 kts | 136° |
| 2026-04-16 18:21 | 49.64707 | -124.09731 | 3379 ft | 203 kts | 137° |
| 2026-04-16 18:21 | 49.63661 | -124.08249 | 3291 ft | 205 kts | 140° |
| 2026-04-16 18:21 | 49.62553 | -124.06837 | 3159 ft | 208 kts | 143° |
| 2026-04-16 18:21 | 49.61371 | -124.05536 | 3051 ft | 209 kts | 146° |
| 2026-04-16 18:22 | 49.60174 | -124.04259 | 2956 ft | 209 kts | 146° |
| 2026-04-16 18:22 | 49.58978 | -124.02988 | 2870 ft | 209 kts | 146° |
| 2026-04-16 18:22 | 49.57776 | -124.01712 | 2729 ft | 211 kts | 146° |
| 2026-04-16 18:22 | 49.56559 | -124.00420 | 2573 ft | 213 kts | 146° |
| 2026-04-16 18:23 | 49.55337 | -123.99125 | 2448 ft | 213 kts | 146° |
| 2026-04-16 18:23 | 49.54113 | -123.97828 | 2326 ft | 213 kts | 146° |
| 2026-04-16 18:23 | 49.52890 | -123.96533 | 2204 ft | 213 kts | 146° |
| 2026-04-16 18:23 | 49.51727 | -123.95110 | 2069 ft | 214 kts | 136° |
| 2026-04-16 18:24 | 49.50750 | -123.93384 | 1940 ft | 214 kts | 127° |
| 2026-04-16 18:24 | 49.49866 | -123.91538 | 1823 ft | 214 kts | 126° |
| 2026-04-16 18:24 | 49.49003 | -123.89715 | 1709 ft | 214 kts | 126° |
| 2026-04-16 18:24 | 49.48128 | -123.87881 | 1676 ft | 210 kts | 126° |
| 2026-04-16 18:25 | 49.47268 | -123.86096 | 1714 ft | 206 kts | 126° |
| 2026-04-16 18:25 | 49.46526 | -123.84252 | 1728 ft | 203 kts | 110° |
| 2026-04-16 18:25 | 49.46120 | -123.82187 | 1730 ft | 201 kts | 105° |
| 2026-04-16 18:25 | 49.45771 | -123.80106 | 1732 ft | 200 kts | 103° |
| 2026-04-16 18:26 | 49.45454 | -123.78025 | 1728 ft | 200 kts | 103° |
| 2026-04-16 18:26 | 49.45102 | -123.75961 | 1724 ft | 200 kts | 108° |
| 2026-04-16 18:26 | 49.44636 | -123.73953 | 1726 ft | 199 kts | 111° |
| 2026-04-16 18:26 | 49.44069 | -123.72019 | 1730 ft | 199 kts | 116° |
| 2026-04-16 18:27 | 49.43467 | -123.70098 | 1729 ft | 200 kts | 116° |
| 2026-04-16 18:27 | 49.42862 | -123.68176 | 1724 ft | 199 kts | 116° |
| 2026-04-16 18:27 | 49.42259 | -123.66259 | 1725 ft | 199 kts | 116° |
| 2026-04-16 18:27 | 49.41666 | -123.64376 | 1726 ft | 198 kts | 116° |
| 2026-04-16 18:28 | 49.41065 | -123.62472 | 1726 ft | 198 kts | 116° |
| 2026-04-16 18:28 | 49.40463 | -123.60567 | 1727 ft | 198 kts | 116° |
| 2026-04-16 18:28 | 49.39864 | -123.58661 | 1727 ft | 198 kts | 115° |
| 2026-04-16 18:28 | 49.39528 | -123.56626 | 1731 ft | 197 kts | 90° |
| 2026-04-16 18:29 | 49.39620 | -123.54525 | 1725 ft | 198 kts | 83° |
| 2026-04-16 18:29 | 49.39831 | -123.52429 | 1726 ft | 199 kts | 78° |
| 2026-04-16 18:29 | 49.40223 | -123.50391 | 1723 ft | 199 kts | 69° |
| 2026-04-16 18:29 | 49.40776 | -123.48443 | 1724 ft | 199 kts | 65° |
| 2026-04-16 18:30 | 49.41354 | -123.46516 | 1722 ft | 199 kts | 60° |
| 2026-04-16 18:30 | 49.42319 | -123.45057 | 1744 ft | 196 kts | 25° |
| 2026-04-16 18:30 | 49.43644 | -123.44803 | 1728 ft | 196 kts | 348° |
| 2026-04-16 18:30 | 49.44949 | -123.45376 | 1727 ft | 195 kts | 343° |
| 2026-04-16 18:31 | 49.46250 | -123.45956 | 1734 ft | 195 kts | 343° |
| 2026-04-16 18:31 | 49.47556 | -123.46530 | 1727 ft | 195 kts | 344° |
| 2026-04-16 18:31 | 49.48893 | -123.46840 | 1720 ft | 195 kts | 1° |
| 2026-04-16 18:31 | 49.50205 | -123.46333 | 1730 ft | 195 kts | 24° |
| 2026-04-16 18:32 | 49.51406 | -123.45359 | 1738 ft | 196 kts | 28° |
| 2026-04-16 18:32 | 49.52518 | -123.44146 | 1710 ft | 197 kts | 46° |
| 2026-04-16 18:32 | 49.53200 | -123.42334 | 1712 ft | 197 kts | 69° |
| 2026-04-16 18:32 | 49.53714 | -123.40378 | 1696 ft | 198 kts | 66° |
| 2026-04-16 18:33 | 49.54279 | -123.38441 | 1696 ft | 198 kts | 66° |
| 2026-04-16 18:33 | 49.54827 | -123.36526 | 1700 ft | 198 kts | 67° |
| 2026-04-16 18:33 | 49.55338 | -123.34560 | 1705 ft | 198 kts | 69° |
| 2026-04-16 18:33 | 49.55827 | -123.32574 | 1696 ft | 199 kts | 68° |
| 2026-04-16 18:34 | 49.56388 | -123.30631 | 1700 ft | 198 kts | 63° |
| 2026-04-16 18:34 | 49.57074 | -123.28790 | 1694 ft | 199 kts | 56° |
| 2026-04-16 18:34 | 49.57936 | -123.27124 | 1685 ft | 199 kts | 44° |
| 2026-04-16 18:34 | 49.59059 | -123.25918 | 1704 ft | 197 kts | 25° |
| 2026-04-16 18:35 | 49.60340 | -123.25189 | 1729 ft | 196 kts | 17° |
| 2026-04-16 18:35 | 49.61651 | -123.24626 | 1743 ft | 196 kts | 14° |
| 2026-04-16 18:35 | 49.62971 | -123.24098 | 1750 ft | 196 kts | 15° |
| 2026-04-16 18:35 | 49.64263 | -123.23438 | 1740 ft | 196 kts | 22° |
| 2026-04-16 18:36 | 49.65439 | -123.22367 | 1709 ft | 198 kts | 39° |
| 2026-04-16 18:36 | 49.66368 | -123.20784 | 1660 ft | 198 kts | 52° |
| 2026-04-16 18:36 | 49.67196 | -123.19176 | 1625 ft | 185 kts | 47° |
| 2026-04-16 18:36 | 49.68128 | -123.17939 | 1581 ft | 169 kts | 34° |
| 2026-04-16 18:37 | 49.69095 | -123.17036 | 1557 ft | 156 kts | 29° |
| 2026-04-16 18:37 | 49.69980 | -123.16170 | 1542 ft | 146 kts | 35° |
| 2026-04-16 18:37 | 49.70783 | -123.15282 | 1511 ft | 139 kts | 34° |
| 2026-04-16 18:37 | 49.71565 | -123.14622 | 1321 ft | 123 kts | 20° |
| 2026-04-16 18:38 | 49.72369 | -123.14292 | 1177 ft | 118 kts | 8° |
| 2026-04-16 18:38 | 49.73180 | -123.14198 | 1061 ft | 116 kts | 355° |
| 2026-04-16 18:38 | 49.73979 | -123.14416 | 940 ft | 118 kts | 345° |
| 2026-04-16 18:38 | 49.74761 | -123.14730 | 804 ft | 115 kts | 341° |
| 2026-04-16 18:39 | 49.75497 | -123.15074 | 653 ft | 107 kts | 343° |
| 2026-04-16 18:39 | 49.76203 | -123.15353 | 552 ft | 105 kts | 343° |
| 2026-04-16 18:39 | 49.76916 | -123.15659 | 415 ft | 106 kts | 343° |
| 2026-04-16 18:39 | 49.77602 | -123.15938 | 246 ft | 99 kts | 345° |
| 2026-04-16 18:40 | 49.78229 | -123.16196 | 175 ft | 81 kts | 346° |
| 2026-04-16 18:40 | 49.78507 | -123.16301 | 174 ft | 13 kts | 357° |
| 2026-04-16 18:40 | 49.78490 | -123.16307 | 174 ft | 11 kts | 160° |
| 2026-04-16 18:40 | 49.78377 | -123.16253 | 174 ft | 21 kts | 164° |
| 2026-04-16 18:41 | 49.78263 | -123.16206 | 176 ft | 14 kts | 163° |
| 2026-04-16 18:41 | 49.78238 | -123.16148 | 175 ft | 10 kts | 26° |
| 2026-04-16 18:41 | 49.78300 | -123.16094 | 178 ft | 8 kts | 30° |
| 2026-04-16 18:41 | 49.78322 | -123.16076 | 181 ft | 0 kts | 26° |
| 2026-04-16 18:42 | 49.78344 | -123.16086 | 181 ft | 7 kts | 313° |
| 2026-04-16 18:42 | 49.78351 | -123.16144 | 176 ft | 6 kts | 273° |
| 2026-04-16 18:42 | 49.78367 | -123.16133 | 176 ft | 1 kts | 99° |
| 2026-04-16 18:42 | 49.78350 | -123.16115 | 178 ft | 5 kts | 137° |
| 2026-04-16 18:43 | 49.78347 | -123.16100 | 179 ft | 0 kts | 101° |